Time;durP1;ratioP1;P1;durP2;ratioP2;P2;SDS_P1;SDS_P2;PMS_P1;PMS_P2;Temp;Humidity;BMP_temperature;BMP_pressure;BME280_temperature;BME280_humidity;BME280_pressure;Samples;Min_cycle;Max_cycle;Signal;HPM_P1;HPM_P2
2022/08/12 00:45:19;;;;;;;5.77;2.50;;;20.40;66.80;;;;;;6887063;28;20442;-81
2022/08/12 00:48:42;;;;;;;4.43;2.60;;;20.30;67.10;;;;;;6877060;28;20434;-80
2022/08/12 00:52:11;;;;;;;6.00;2.63;;;20.20;67.30;;;;;;6885255;28;20909;-79
2022/08/12 00:55:33;;;;;;;5.35;2.78;;;20.10;67.30;;;;;;6885160;28;20525;-80
2022/08/12 00:58:57;;;;;;;7.20;2.78;;;20.10;67.30;;;;;;6886357;28;20474;-80
2022/08/12 01:02:25;;;;;;;6.05;2.80;;;20.10;66.90;;;;;;6884998;28;20570;-81
2022/08/12 01:13:13;;;;;;;5.33;2.73;;;20.00;68.10;;;;;;6887097;28;20430;-80
2022/08/12 01:16:36;;;;;;;5.07;2.47;;;20.00;66.90;;;;;;6885623;28;20928;-80
2022/08/12 01:20:04;;;;;;;5.55;2.75;;;20.00;66.70;;;;;;6885522;28;20434;-81
2022/08/12 01:23:46;;;;;;;4.75;2.60;;;20.00;67.00;;;;;;6885442;28;20492;-79
2022/08/12 01:27:11;;;;;;;6.43;2.60;;;20.00;66.40;;;;;;6886108;28;20565;-78
2022/08/12 01:30:35;;;;;;;5.18;2.67;;;19.90;66.20;;;;;;6884113;28;20500;-79
2022/08/12 01:34:05;;;;;;;4.93;2.53;;;20.00;66.80;;;;;;6888570;28;20955;-78
2022/08/12 01:37:30;;;;;;;5.45;2.78;;;20.00;67.70;;;;;;6890517;28;20792;-80
2022/08/12 01:40:54;;;;;;;6.50;2.63;;;20.10;68.00;;;;;;6888194;28;20971;-80
2022/08/12 01:44:19;;;;;;;5.37;2.70;;;20.20;67.70;;;;;;6891050;28;20430;-81
2022/08/12 01:47:59;;;;;;;4.97;2.65;;;20.00;67.90;;;;;;6890835;28;20438;-79
2022/08/12 01:51:38;;;;;;;5.88;2.72;;;19.90;68.10;;;;;;6890264;28;20446;-81
2022/08/12 01:55:01;;;;;;;6.28;2.70;;;19.80;68.70;;;;;;6888343;28;20438;-80
2022/08/12 01:59:44;;;;;;;5.88;2.90;;;19.60;69.30;;;;;;6888502;28;20436;-79
2022/08/12 02:02:18;;;;;;;5.13;3.10;;;19.50;69.80;;;;;;6885886;28;20449;-79
2022/08/12 02:14:00;;;;;;;4.65;2.67;;;19.40;70.80;;;;;;6893342;28;20430;-79
2022/08/12 02:17:48;;;;;;;4.88;2.60;;;19.50;70.60;;;;;;6889707;28;20489;-81
2022/08/12 02:21:20;;;;;;;4.72;2.67;;;19.50;69.50;;;;;;6888711;28;20848;-80
2022/08/12 02:24:46;;;;;;;6.68;2.70;;;19.30;70.30;;;;;;6888686;28;20500;-80
2022/08/12 02:28:08;;;;;;;5.53;2.50;;;19.10;70.00;;;;;;6888968;28;20430;-81
2022/08/12 02:31:31;;;;;;;5.30;2.70;;;19.00;70.30;;;;;;6887468;28;20471;-81
2022/08/12 02:34:56;;;;;;;6.05;2.90;;;19.00;70.50;;;;;;6889413;28;20447;-78
2022/08/12 02:38:20;;;;;;;6.25;3.00;;;19.00;70.50;;;;;;6889177;28;20430;-79
2022/08/12 02:41:46;;;;;;;6.03;2.97;;;19.10;70.50;;;;;;6872693;28;20447;-79
2022/08/12 02:45:09;;;;;;;6.45;2.97;;;19.00;71.70;;;;;;6887497;28;20985;-80
2022/08/12 02:48:40;;;;;;;4.45;2.60;;;19.00;71.60;;;;;;6887763;28;20442;-79
2022/08/12 02:52:04;;;;;;;5.70;2.67;;;18.90;70.60;;;;;;6885887;28;20801;-81
2022/08/12 02:55:30;;;;;;;4.50;2.60;;;18.90;70.30;;;;;;6887028;28;20438;-80
2022/08/12 02:58:53;;;;;;;4.73;2.77;;;19.00;70.30;;;;;;6888535;28;20430;-81
2022/08/12 03:02:20;;;;;;;4.53;2.67;;;19.00;71.40;;;;;;6888376;28;20442;-84
2022/08/12 03:05:49;;;;;;;5.68;2.90;;;18.90;71.30;;;;;;6890536;28;20450;-84
2022/08/12 03:09:15;;;;;;;6.30;3.00;;;19.00;71.10;;;;;;6890881;28;20831;-86
2022/08/12 03:12:40;;;;;;;4.72;2.70;;;18.90;72.50;;;;;;6889988;28;20482;-85
2022/08/12 03:16:03;;;;;;;6.13;3.00;;;18.90;71.80;;;;;;6890446;28;20490;-83
2022/08/12 03:19:25;;;;;;;5.35;2.97;;;19.00;71.90;;;;;;6873143;28;20462;-83
2022/08/12 03:22:49;;;;;;;4.97;2.80;;;19.00;72.40;;;;;;6893107;28;20913;-84
2022/08/12 03:26:14;;;;;;;4.70;3.00;;;19.00;72.10;;;;;;6892888;28;20866;-84
2022/08/12 03:29:38;;;;;;;5.35;2.90;;;19.10;72.20;;;;;;6888091;28;20446;-83
2022/08/12 03:33:02;;;;;;;4.90;2.80;;;19.10;72.40;;;;;;6885789;28;20446;-85
2022/08/12 03:36:27;;;;;;;4.70;2.65;;;19.20;72.10;;;;;;6876922;28;20437;-85
2022/08/12 03:39:49;;;;;;;4.20;2.70;;;19.10;72.60;;;;;;6888745;28;20434;-85
2022/08/12 04:01:56;;;;;;;4.87;2.67;;;18.70;74.00;;;;;;6887736;28;20447;-84
2022/08/12 04:05:19;;;;;;;4.57;3.03;;;18.80;73.50;;;;;;6889165;28;20430;-83
2022/08/12 04:08:42;;;;;;;4.97;2.58;;;18.90;73.20;;;;;;6888561;28;20445;-83
2022/08/12 04:15:47;;;;;;;5.30;2.72;;;18.90;72.50;;;;;;6888564;28;20430;-84
2022/08/12 04:19:12;;;;;;;6.28;2.90;;;18.90;72.80;;;;;;6888309;28;20438;-83
2022/08/12 04:22:35;;;;;;;4.53;2.90;;;18.90;73.20;;;;;;6888900;28;20484;-84
2022/08/12 04:25:57;;;;;;;4.50;2.70;;;18.90;73.10;;;;;;6888164;28;20472;-84
2022/08/12 04:29:21;;;;;;;6.13;2.90;;;18.80;73.20;;;;;;6871082;28;20457;-84
2022/08/12 04:32:43;;;;;;;6.05;3.00;;;18.70;73.50;;;;;;6888742;28;20881;-84
2022/08/12 04:36:08;;;;;;;5.60;2.65;;;18.60;74.40;;;;;;6887960;28;20434;-84
2022/08/12 04:39:30;;;;;;;5.70;2.90;;;18.70;74.40;;;;;;6886998;28;20438;-84
2022/08/12 04:42:53;;;;;;;6.30;2.80;;;18.70;74.40;;;;;;6888118;28;20481;-84
2022/08/12 04:46:15;;;;;;;4.78;2.90;;;18.80;74.60;;;;;;6887547;28;20516;-84
2022/08/12 04:49:38;;;;;;;7.13;2.92;;;18.80;74.10;;;;;;6888002;28;20442;-82
2022/08/12 04:53:02;;;;;;;5.30;2.90;;;18.80;74.00;;;;;;6887628;28;20813;-84
2022/08/12 04:56:24;;;;;;;5.35;2.80;;;18.80;74.60;;;;;;6887651;28;20446;-84
2022/08/12 04:59:46;;;;;;;5.60;2.85;;;18.80;74.10;;;;;;6888006;28;20438;-84
2022/08/12 05:03:08;;;;;;;4.68;2.80;;;18.80;74.60;;;;;;6887181;28;20928;-84
2022/08/12 05:06:31;;;;;;;4.45;2.83;;;18.80;74.80;;;;;;6887785;28;20833;-84
2022/08/12 05:09:55;;;;;;;4.77;3.03;;;18.90;74.60;;;;;;6892510;28;20517;-84
2022/08/12 05:13:20;;;;;;;5.78;3.40;;;18.90;74.60;;;;;;6892312;28;20445;-83
2022/08/12 05:16:43;;;;;;;5.97;3.30;;;18.80;74.40;;;;;;6899674;28;20433;-84
2022/08/12 05:20:06;;;;;;;5.57;3.40;;;18.80;74.80;;;;;;6908500;28;20430;-84
2022/08/12 05:23:31;;;;;;;6.82;3.60;;;18.90;75.00;;;;;;6899674;28;20446;-83
2022/08/12 05:26:55;;;;;;;5.13;3.30;;;18.80;75.00;;;;;;6898064;28;20438;-85
2022/08/12 05:30:18;;;;;;;5.90;3.40;;;18.80;74.80;;;;;;6896190;28;20441;-84
2022/08/12 05:33:40;;;;;;;7.50;3.20;;;18.80;75.50;;;;;;6896816;28;20492;-85
2022/08/12 05:37:03;;;;;;;6.18;3.25;;;18.80;75.80;;;;;;6896406;28;20434;-84
2022/08/12 05:40:25;;;;;;;6.20;3.20;;;18.80;76.10;;;;;;6896278;28;20436;-83
2022/08/12 05:43:52;;;;;;;7.07;3.30;;;18.80;76.10;;;;;;6892431;28;20442;-83
2022/08/12 05:47:14;;;;;;;6.55;3.20;;;18.70;76.10;;;;;;6892174;28;20538;-83
2022/08/12 05:50:37;;;;;;;6.93;2.92;;;18.60;76.50;;;;;;6894355;28;20441;-83
2022/08/12 05:54:00;;;;;;;4.60;2.95;;;18.50;77.70;;;;;;6874051;28;20441;-82
2022/08/12 05:57:22;;;;;;;5.93;3.03;;;18.60;77.20;;;;;;6893379;28;20445;-88
2022/08/12 06:00:45;;;;;;;6.50;3.40;;;18.60;78.00;;;;;;6894361;28;20831;-87
2022/08/12 06:04:08;;;;;;;5.10;3.45;;;18.60;77.30;;;;;;6893809;28;20442;-87
2022/08/12 06:07:33;;;;;;;5.28;3.25;;;18.60;77.10;;;;;;6893455;28;20974;-84
2022/08/12 06:10:55;;;;;;;6.20;3.47;;;18.60;77.00;;;;;;6892292;28;20966;-84
2022/08/12 06:14:18;;;;;;;6.20;3.40;;;18.60;76.70;;;;;;6891247;28;20451;-84
2022/08/12 06:17:41;;;;;;;8.10;3.80;;;18.60;76.90;;;;;;6891512;28;20430;-85
2022/08/12 06:21:06;;;;;;;7.07;3.50;;;18.80;77.10;;;;;;6891072;28;20785;-84
2022/08/12 06:24:28;;;;;;;8.32;3.72;;;18.80;77.00;;;;;;6891212;28;20442;-85
2022/08/12 06:27:50;;;;;;;6.55;3.60;;;18.90;77.20;;;;;;6890466;28;20457;-79
2022/08/12 06:31:15;;;;;;;8.00;3.83;;;19.00;78.20;;;;;;6887534;28;20829;-79
2022/08/12 06:34:38;;;;;;;8.13;3.85;;;19.10;78.90;;;;;;6889040;28;20434;-78
2022/08/12 06:38:02;;;;;;;8.65;3.70;;;19.10;78.60;;;;;;6889201;28;20438;-79
2022/08/12 06:45:03;;;;;;;7.68;3.58;;;19.40;79.20;;;;;;6858472;28;20444;-78
2022/08/12 06:48:27;;;;;;;7.63;3.20;;;19.50;78.40;;;;;;6885468;28;20470;-78
2022/08/12 06:51:54;;;;;;;6.22;3.20;;;19.60;77.80;;;;;;6884746;28;20421;-77
2022/08/12 06:55:19;;;;;;;6.75;2.90;;;19.70;78.00;;;;;;6885601;28;20434;-79
2022/08/12 06:58:41;;;;;;;5.57;2.60;;;19.80;74.70;;;;;;6885202;28;20441;-76
2022/08/12 07:02:03;;;;;;;6.55;3.00;;;19.90;74.10;;;;;;6884409;28;20469;-76
2022/08/12 07:05:25;;;;;;;8.57;2.60;;;20.00;73.00;;;;;;6885447;28;20438;-79
2022/08/12 07:08:49;;;;;;;8.75;2.80;;;20.20;72.60;;;;;;6884529;28;20441;-78
2022/08/12 07:12:15;;;;;;;5.72;2.60;;;20.30;72.10;;;;;;6884383;28;20449;-78
2022/08/12 07:15:38;;;;;;;7.38;2.45;;;20.40;71.50;;;;;;6884973;28;21067;-77
2022/08/12 07:19:00;;;;;;;6.55;2.50;;;20.50;71.30;;;;;;6883683;28;20445;-76
2022/08/12 07:22:22;;;;;;;6.13;2.50;;;20.50;70.20;;;;;;6884458;28;20441;-78
2022/08/12 07:25:45;;;;;;;5.93;2.58;;;20.70;69.30;;;;;;6884370;28;20478;-77
2022/08/12 07:29:08;;;;;;;6.47;2.40;;;20.70;69.60;;;;;;6884528;28;21075;-75
2022/08/12 07:32:30;;;;;;;6.00;2.45;;;20.80;69.60;;;;;;6883698;28;20865;-77
2022/08/12 07:35:53;;;;;;;6.60;2.58;;;21.00;69.50;;;;;;6883435;28;20537;-77
2022/08/12 07:39:15;;;;;;;5.68;2.50;;;21.10;69.20;;;;;;6884402;28;20434;-77
2022/08/12 07:42:39;;;;;;;5.53;2.22;;;21.20;68.60;;;;;;6881637;28;20529;-79
2022/08/12 07:46:02;;;;;;;11.97;4.23;;;21.30;67.70;;;;;;6883295;28;20438;-79
2022/08/12 07:49:26;;;;;;;6.90;2.42;;;21.40;66.30;;;;;;6900631;28;20506;-78
2022/08/12 07:52:48;;;;;;;11.43;6.30;;;21.40;66.20;;;;;;6910797;28;20451;-78
2022/08/12 07:56:11;;;;;;;6.53;2.65;;;21.50;65.60;;;;;;6910251;28;20483;-77
2022/08/12 07:59:34;;;;;;;6.40;2.58;;;21.60;65.20;;;;;;6910429;28;20490;-77
2022/08/12 08:02:57;;;;;;;7.90;3.03;;;21.70;64.40;;;;;;6910812;28;20455;-78
2022/08/12 08:06:21;;;;;;;5.93;2.40;;;21.80;65.10;;;;;;6910263;28;20472;-79
2022/08/12 08:09:43;;;;;;;5.00;2.20;;;21.90;64.30;;;;;;6909965;28;20440;-80
2022/08/12 08:13:05;;;;;;;5.28;2.35;;;22.00;63.10;;;;;;6910159;28;21009;-78
2022/08/12 08:16:28;;;;;;;5.80;2.40;;;22.00;63.50;;;;;;6907018;28;20556;-77
2022/08/12 08:19:51;;;;;;;5.80;2.40;;;22.10;64.10;;;;;;6904960;28;20444;-78
2022/08/12 08:23:16;;;;;;;6.10;2.38;;;22.20;64.00;;;;;;6884694;28;20446;-78
2022/08/12 08:26:38;;;;;;;6.50;2.35;;;22.30;63.80;;;;;;6878276;28;20444;-78
2022/08/12 08:30:01;;;;;;;9.68;4.97;;;22.30;63.20;;;;;;6884010;28;20917;-77
2022/08/12 08:33:25;;;;;;;5.93;2.30;;;22.40;62.60;;;;;;6886065;28;20839;-82
2022/08/12 08:36:48;;;;;;;5.20;2.50;;;22.40;62.50;;;;;;6889344;28;20495;-78
2022/08/12 08:43:54;;;;;;;5.85;2.20;;;22.50;62.30;;;;;;6891544;28;20442;-77
2022/08/12 08:47:16;;;;;;;6.25;2.30;;;22.50;62.40;;;;;;6891763;28;20920;-80
2022/08/12 08:50:39;;;;;;;5.45;2.30;;;22.70;61.80;;;;;;6891752;28;20461;-78
2022/08/12 08:54:01;;;;;;;4.23;2.10;;;22.70;60.70;;;;;;6891999;28;20821;-78
2022/08/12 08:57:23;;;;;;;5.20;1.95;;;22.90;58.40;;;;;;6892076;28;20430;-78
2022/08/12 09:00:48;;;;;;;5.75;2.00;;;23.10;57.80;;;;;;6891711;28;20437;-78
2022/08/12 09:04:10;;;;;;;4.70;1.80;;;23.20;58.20;;;;;;6891869;28;20446;-80
2022/08/12 09:07:43;;;;;;;6.95;1.92;;;23.30;56.10;;;;;;6892015;28;20440;-83
2022/08/12 09:14:42;;;;;;;4.93;1.90;;;23.40;56.60;;;;;;6890463;28;20434;-79
2022/08/12 09:18:06;;;;;;;6.20;2.58;;;23.40;56.20;;;;;;6891463;28;20489;-80
2022/08/12 09:21:29;;;;;;;6.78;2.30;;;23.50;55.90;;;;;;6891051;28;20478;-79
2022/08/12 09:24:53;;;;;;;6.20;2.10;;;23.70;55.20;;;;;;6890848;28;20442;-79
2022/08/12 09:28:15;;;;;;;5.10;1.80;;;23.80;55.20;;;;;;6891020;28;20812;-80
2022/08/12 09:31:37;;;;;;;4.97;1.83;;;23.80;55.20;;;;;;6890784;28;20430;-78
2022/08/12 09:34:59;;;;;;;5.43;2.13;;;23.90;53.90;;;;;;6891195;28;20478;-79
2022/08/12 09:38:22;;;;;;;4.95;2.40;;;24.00;53.40;;;;;;6891360;28;20872;-78
2022/08/12 09:45:19;;;;;;;5.60;2.00;;;24.10;53.30;;;;;;6891800;28;20975;-80
2022/08/12 09:45:27;;;;;;;4.68;1.80;;;24.20;52.90;;;;;;6892071;28;20529;-80
2022/08/12 09:48:49;;;;;;;4.07;1.60;;;24.30;51.40;;;;;;6902961;28;20447;-80
2022/08/12 09:52:14;;;;;;;4.78;1.80;;;24.30;51.90;;;;;;6918387;28;20491;-82
2022/08/12 09:55:36;;;;;;;4.78;1.67;;;24.50;50.90;;;;;;6917253;28;20436;-79
2022/08/12 09:59:00;;;;;;;4.83;1.60;;;24.60;51.00;;;;;;6918067;28;20488;-80
2022/08/12 10:02:22;;;;;;;6.53;1.90;;;24.60;50.90;;;;;;6918219;28;20444;-78
2022/08/12 10:05:47;;;;;;;3.93;1.70;;;24.70;50.90;;;;;;6917992;28;20526;-78
2022/08/12 10:09:11;;;;;;;5.03;1.60;;;24.70;50.10;;;;;;6916874;28;20436;-79
2022/08/12 10:16:16;;;;;;;4.47;1.70;;;24.80;50.20;;;;;;6916890;28;20425;-78
2022/08/12 10:19:38;;;;;;;4.10;1.75;;;24.90;49.50;;;;;;6916723;28;20444;-80
2022/08/12 10:23:01;;;;;;;4.20;1.70;;;25.00;49.40;;;;;;6916340;28;20436;-81
2022/08/12 10:30:03;;;;;;;3.38;1.60;;;25.10;49.80;;;;;;6916305;28;20460;-81
2022/08/12 10:33:29;;;;;;;4.35;1.83;;;25.20;50.40;;;;;;6916137;28;20468;-79
2022/08/12 10:36:57;;;;;;;4.70;1.80;;;25.30;48.60;;;;;;6915568;28;20913;-79
2022/08/12 10:40:21;;;;;;;3.95;1.70;;;25.30;49.10;;;;;;6916029;28;20432;-79
2022/08/12 10:43:42;;;;;;;5.85;3.20;;;25.40;48.80;;;;;;6916105;28;20937;-81
2022/08/12 10:47:04;;;;;;;6.93;2.53;;;25.40;48.20;;;;;;6915807;28;20440;-79
2022/08/12 10:50:28;;;;;;;4.70;1.75;;;25.50;48.80;;;;;;6890030;28;20445;-78
2022/08/12 10:53:54;;;;;;;5.05;1.60;;;25.50;47.10;;;;;;6888731;28;20434;-80
2022/08/12 10:57:18;;;;;;;3.30;1.57;;;25.50;48.00;;;;;;6888696;28;20430;-78
2022/08/12 11:00:40;;;;;;;4.22;1.70;;;25.60;48.10;;;;;;6888551;28;20430;-79
2022/08/12 11:04:04;;;;;;;3.95;1.60;;;25.70;48.20;;;;;;6888607;28;20453;-79
2022/08/12 11:07:28;;;;;;;5.43;1.63;;;25.80;48.80;;;;;;6887473;28;20434;-78
2022/08/12 11:10:50;;;;;;;4.00;1.60;;;25.90;47.20;;;;;;6888479;28;20909;-78
2022/08/12 11:14:16;;;;;;;3.58;1.67;;;26.00;48.10;;;;;;6888334;28;20578;-78
2022/08/12 11:17:39;;;;;;;3.80;1.58;;;26.20;48.00;;;;;;6893479;28;20520;-80
2022/08/12 11:21:01;;;;;;;4.90;1.67;;;26.10;46.70;;;;;;6894487;28;20445;-80
2022/08/12 11:24:26;;;;;;;4.90;1.50;;;26.10;47.40;;;;;;6884448;28;20477;-79
2022/08/12 11:27:48;;;;;;;5.03;1.80;;;26.10;47.40;;;;;;6888076;28;20485;-77
2022/08/12 11:31:10;;;;;;;3.97;1.70;;;26.20;47.10;;;;;;6888220;28;20430;-79
2022/08/12 11:34:32;;;;;;;4.65;1.85;;;26.10;47.60;;;;;;6891352;28;20442;-85
2022/08/12 11:37:55;;;;;;;5.13;1.80;;;26.10;47.60;;;;;;6873183;28;20433;-84
2022/08/12 11:41:19;;;;;;;4.78;1.60;;;26.30;47.40;;;;;;6891250;28;20441;-84
2022/08/12 11:44:41;;;;;;;3.40;1.50;;;26.30;47.50;;;;;;6891030;28;20445;-86
2022/08/12 11:48:04;;;;;;;4.05;1.58;;;26.30;47.30;;;;;;6896812;28;20436;-83
2022/08/12 11:51:26;;;;;;;3.47;1.50;;;26.60;47.50;;;;;;6898241;28;20804;-83
2022/08/12 11:54:48;;;;;;;4.32;1.48;;;26.70;46.00;;;;;;6899191;28;20441;-82
2022/08/12 11:58:12;;;;;;;3.17;1.48;;;26.90;45.60;;;;;;6916124;28;20445;-83
2022/08/12 12:01:34;;;;;;;5.00;1.60;;;26.90;45.70;;;;;;6914481;28;20432;-83
2022/08/12 12:04:57;;;;;;;4.47;1.67;;;26.90;46.20;;;;;;6915206;28;20444;-80
2022/08/12 12:08:22;;;;;;;3.75;1.48;;;27.00;46.00;;;;;;6915048;28;20436;-80
2022/08/12 12:11:44;;;;;;;3.93;1.50;;;26.90;46.20;;;;;;6888413;28;20445;-79
2022/08/12 12:15:09;;;;;;;4.97;1.60;;;27.00;45.40;;;;;;6891687;28;21109;-79
2022/08/12 12:18:33;;;;;;;3.70;1.70;;;27.50;47.10;;;;;;6905856;28;20444;-78
2022/08/12 12:21:55;;;;;;;3.22;1.55;;;27.60;45.50;;;;;;6907991;28;20432;-78
2022/08/12 12:25:17;;;;;;;4.60;1.90;;;27.50;45.70;;;;;;6908035;28;20476;-78
2022/08/12 12:28:41;;;;;;;4.13;1.67;;;27.30;45.40;;;;;;6909376;28;20516;-79
2022/08/12 12:32:05;;;;;;;5.68;1.67;;;27.10;46.80;;;;;;6893349;28;20454;-79
2022/08/12 12:35:27;;;;;;;4.30;1.60;;;27.10;46.90;;;;;;6881334;28;20466;-79
2022/08/12 12:38:49;;;;;;;3.70;1.60;;;27.00;46.50;;;;;;6885540;28;20460;-77
2022/08/12 12:42:11;;;;;;;4.63;1.50;;;27.40;46.90;;;;;;6895280;28;20598;-80
2022/08/12 12:45:36;;;;;;;3.83;1.63;;;27.40;46.10;;;;;;6908245;28;20447;-79
2022/08/12 12:48:59;;;;;;;3.92;1.70;;;27.50;46.40;;;;;;6892052;28;20961;-79
2022/08/12 12:52:21;;;;;;;5.38;1.63;;;27.60;45.90;;;;;;6882169;28;20856;-79
2022/08/12 12:55:46;;;;;;;5.70;1.70;;;27.40;45.80;;;;;;6882700;28;20461;-80
2022/08/12 12:59:08;;;;;;;4.93;1.75;;;27.40;46.50;;;;;;6881164;28;20513;-79
2022/08/12 13:02:30;;;;;;;7.78;3.92;;;27.60;45.30;;;;;;6876168;28;20438;-81
2022/08/12 13:05:59;;;;;;;8.95;6.22;;;27.70;45.50;;;;;;6881552;28;20454;-78
2022/08/12 13:09:21;;;;;;;5.10;1.60;;;27.70;45.60;;;;;;6881637;28;20781;-79
2022/08/12 13:12:43;;;;;;;5.65;1.63;;;28.00;45.30;;;;;;6882402;28;20434;-78
2022/08/12 13:16:06;;;;;;;3.50;1.40;;;28.20;45.20;;;;;;6881310;28;20444;-78
2022/08/12 13:19:28;;;;;;;5.87;1.60;;;28.30;45.10;;;;;;6882606;28;20438;-78
2022/08/12 13:22:52;;;;;;;3.95;1.50;;;28.60;44.50;;;;;;6880729;28;20473;-80
2022/08/12 13:26:16;;;;;;;3.75;1.58;;;28.80;44.70;;;;;;6880645;28;20869;-79
2022/08/12 13:29:38;;;;;;;4.38;1.60;;;28.90;44.40;;;;;;6885668;28;20437;-79
2022/08/12 13:33:00;;;;;;;3.50;1.60;;;29.00;44.10;;;;;;6888717;28;20510;-78
2022/08/12 13:36:22;;;;;;;6.53;1.63;;;28.80;43.70;;;;;;6886345;28;20501;-79
2022/08/12 13:39:45;;;;;;;4.90;1.60;;;28.50;44.20;;;;;;6886573;28;20891;-79
2022/08/12 13:43:14;;;;;;;4.85;1.60;;;28.50;44.60;;;;;;6886197;28;21042;-78
2022/08/12 13:46:36;;;;;;;4.05;1.60;;;28.60;44.20;;;;;;6885379;28;20446;-79
2022/08/12 13:49:59;;;;;;;4.65;1.60;;;28.60;44.70;;;;;;6898778;28;20494;-79
2022/08/12 13:53:21;;;;;;;4.63;1.50;;;28.80;44.10;;;;;;6902916;28;20822;-79
2022/08/12 13:56:44;;;;;;;3.80;1.53;;;29.10;44.20;;;;;;6886280;28;20492;-79
2022/08/12 14:00:08;;;;;;;5.00;1.70;;;29.20;43.70;;;;;;6893781;28;20448;-78
2022/08/12 14:03:30;;;;;;;3.97;1.55;;;29.40;43.70;;;;;;6911740;28;20432;-80
2022/08/12 14:06:52;;;;;;;6.00;1.63;;;29.20;42.70;;;;;;6895102;28;20474;-79
2022/08/12 14:10:37;;;;;;;4.57;1.48;;;29.10;42.80;;;;;;6886718;28;20438;-79
2022/08/12 14:14:01;;;;;;;3.80;1.50;;;28.90;43.50;;;;;;6889189;28;20478;-81
2022/08/12 14:17:23;;;;;;;4.68;1.55;;;28.50;43.60;;;;;;6892504;28;20885;-79
2022/08/12 14:20:47;;;;;;;3.80;1.50;;;28.90;43.50;;;;;;6910322;28;20475;-78
2022/08/12 14:24:09;;;;;;;3.90;1.50;;;29.20;43.60;;;;;;6908203;28;20935;-80
2022/08/12 14:27:31;;;;;;;5.40;1.65;;;28.80;43.10;;;;;;6885876;28;20434;-80
2022/08/12 14:31:01;;;;;;;6.30;1.58;;;28.70;43.50;;;;;;6894808;28;20493;-81
2022/08/12 14:34:23;;;;;;;4.25;1.65;;;28.40;43.60;;;;;;6884539;28;21009;-78
2022/08/12 14:37:45;;;;;;;4.23;1.50;;;28.40;44.20;;;;;;6883135;28;20438;-82
2022/08/12 14:41:12;;;;;;;4.00;1.50;;;28.30;44.70;;;;;;6890562;28;20443;-80
2022/08/12 14:44:34;;;;;;;3.63;1.60;;;28.20;44.20;;;;;;6912171;28;20475;-78
2022/08/12 14:47:57;;;;;;;5.10;1.58;;;28.20;44.70;;;;;;6909667;28;20440;-79
2022/08/12 14:51:23;;;;;;;4.07;1.55;;;28.10;44.70;;;;;;6884705;28;20445;-80
2022/08/12 14:54:45;;;;;;;4.15;1.40;;;28.40;45.20;;;;;;6885170;28;20477;-77
2022/08/12 14:58:09;;;;;;;4.72;1.70;;;28.70;44.50;;;;;;6886025;28;20952;-85
2022/08/12 15:01:41;;;;;;;3.87;1.43;;;28.60;43.90;;;;;;6885922;28;20553;-82
2022/08/12 15:05:05;;;;;;;3.95;1.60;;;28.50;44.20;;;;;;6886208;28;20450;-83
2022/08/12 15:08:32;;;;;;;4.90;1.40;;;28.20;44.50;;;;;;6893028;28;20438;-82
2022/08/12 15:11:54;;;;;;;4.22;1.50;;;28.20;44.40;;;;;;6907874;28;20440;-83
2022/08/12 15:15:16;;;;;;;5.55;1.60;;;28.20;45.10;;;;;;6909633;28;20446;-84
2022/08/12 15:18:39;;;;;;;4.43;1.50;;;27.90;44.90;;;;;;6894572;28;20491;-85
2022/08/12 15:22:03;;;;;;;4.30;1.63;;;27.90;45.10;;;;;;6896610;28;20485;-84
2022/08/12 15:25:25;;;;;;;3.58;1.50;;;27.90;44.50;;;;;;6886421;28;20451;-84
2022/08/12 15:28:48;;;;;;;3.97;1.40;;;27.90;45.10;;;;;;6881905;28;20501;-83
2022/08/12 15:32:11;;;;;;;3.42;1.40;;;28.00;45.00;;;;;;6875891;28;20449;-83
2022/08/12 15:35:34;;;;;;;3.75;1.48;;;28.10;44.80;;;;;;6884601;28;20940;-84
2022/08/12 15:38:57;;;;;;;3.78;1.50;;;28.40;44.50;;;;;;6885415;28;20445;-83
2022/08/12 15:42:19;;;;;;;3.97;1.50;;;28.70;44.20;;;;;;6885998;28;20442;-83
2022/08/12 15:45:43;;;;;;;3.50;1.40;;;28.90;43.70;;;;;;6876992;28;20442;-82
2022/08/12 15:49:06;;;;;;;3.00;1.40;;;29.20;43.60;;;;;;6884137;28;20445;-83
2022/08/12 15:52:30;;;;;;;3.83;1.60;;;29.30;43.30;;;;;;6883959;28;20462;-80
2022/08/12 15:55:53;;;;;;;4.22;1.40;;;29.40;42.90;;;;;;6883159;28;20449;-79
2022/08/12 15:59:15;;;;;;;4.35;1.40;;;29.70;43.60;;;;;;6874872;28;20555;-81
2022/08/12 16:02:41;;;;;;;5.57;1.70;;;29.50;42.80;;;;;;6883137;28;20506;-82
2022/08/12 16:06:03;;;;;;;3.58;1.40;;;29.30;42.90;;;;;;6882639;28;20453;-82
2022/08/12 16:09:25;;;;;;;4.20;1.25;;;29.10;43.50;;;;;;6881598;28;20477;-82
2022/08/12 16:12:55;;;;;;;3.92;1.35;;;28.90;42.90;;;;;;6884005;28;20809;-82
2022/08/12 16:16:17;;;;;;;3.17;1.20;;;29.10;43.10;;;;;;6885066;28;20897;-80
2022/08/12 16:19:41;;;;;;;4.10;1.40;;;29.10;43.00;;;;;;6874512;28;20441;-82
2022/08/12 16:23:09;;;;;;;5.43;1.50;;;29.20;43.20;;;;;;6877149;28;20438;-82
2022/08/12 16:26:33;;;;;;;3.85;1.30;;;29.30;42.40;;;;;;6865239;28;20973;-82
2022/08/12 16:29:58;;;;;;;3.58;1.27;;;29.50;41.90;;;;;;6881202;28;20461;-82
2022/08/12 16:33:20;;;;;;;5.10;1.30;;;29.70;42.00;;;;;;6882312;28;20446;-81
2022/08/12 16:36:44;;;;;;;3.63;1.43;;;30.10;42.10;;;;;;6886294;28;20442;-82
2022/08/12 16:40:08;;;;;;;4.03;1.30;;;30.10;41.30;;;;;;6861923;28;20445;-83
2022/08/12 16:43:33;;;;;;;4.97;1.42;;;29.90;40.90;;;;;;6881648;28;20880;-82
2022/08/12 16:46:57;;;;;;;3.10;1.20;;;29.60;41.30;;;;;;6886039;28;20482;-80
2022/08/12 16:50:23;;;;;;;3.70;1.17;;;29.20;40.40;;;;;;6890006;28;20449;-75
2022/08/12 16:53:45;;;;;;;3.20;1.15;;;29.50;41.50;;;;;;6895537;28;20451;-82
2022/08/12 16:57:08;;;;;;;7.10;4.10;;;29.90;41.60;;;;;;6909387;28;20922;-78
2022/08/12 17:00:30;;;;;;;5.10;1.80;;;30.20;41.00;;;;;;6909293;28;20443;-79
2022/08/12 17:04:11;;;;;;;2.57;1.03;;;30.20;40.50;;;;;;6890552;28;20469;-78
2022/08/12 17:07:36;;;;;;;3.42;0.90;;;30.20;40.20;;;;;;6892444;28;20512;-78
2022/08/12 17:10:58;;;;;;;3.35;1.00;;;30.20;40.30;;;;;;6889375;28;20447;-80
2022/08/12 17:14:21;;;;;;;2.83;0.90;;;30.30;39.90;;;;;;6886825;28;20484;-83
2022/08/12 17:17:45;;;;;;;2.78;0.90;;;30.20;39.60;;;;;;6900452;28;20442;-81
2022/08/12 17:21:08;;;;;;;3.80;1.00;;;30.40;39.90;;;;;;6887392;28;20445;-79
2022/08/12 17:24:32;;;;;;;2.78;0.90;;;30.50;39.60;;;;;;6886946;28;20442;-83
2022/08/12 17:27:55;;;;;;;2.85;0.82;;;30.60;39.80;;;;;;6887804;28;21139;-78
2022/08/12 17:31:18;;;;;;;2.83;0.90;;;30.50;40.50;;;;;;6887490;28;20437;-78
2022/08/12 17:38:22;;;;;;;2.65;1.02;;;30.40;39.50;;;;;;6892463;28;20446;-84
2022/08/12 17:41:44;;;;;;;2.03;0.90;;;30.20;39.10;;;;;;6890674;28;20441;-87
2022/08/12 17:45:09;;;;;;;3.83;0.90;;;30.20;39.70;;;;;;6893524;28;20450;-85
2022/08/12 17:48:31;;;;;;;2.72;0.90;;;30.50;40.00;;;;;;6874762;28;20442;-86
2022/08/12 17:51:54;;;;;;;3.22;0.88;;;30.50;40.20;;;;;;6892928;28;21313;-87
2022/08/12 17:55:18;;;;;;;2.50;0.90;;;30.60;41.20;;;;;;6873948;28;20656;-86
2022/08/12 17:58:41;;;;;;;2.75;0.85;;;30.50;40.80;;;;;;6889669;28;20781;-86
2022/08/12 18:02:05;;;;;;;2.45;0.90;;;30.40;40.60;;;;;;6890270;28;20901;-84
2022/08/12 18:05:28;;;;;;;2.78;0.90;;;30.40;40.30;;;;;;6892309;28;20955;-85
2022/08/12 18:08:51;;;;;;;3.53;1.20;;;30.30;41.30;;;;;;6889315;28;20792;-86
2022/08/12 18:15:57;;;;;;;2.95;1.13;;;30.20;41.60;;;;;;6891085;28;20442;-87
2022/08/12 18:19:19;;;;;;;3.67;1.20;;;30.20;42.50;;;;;;6889522;28;20434;-77
2022/08/12 18:22:42;;;;;;;2.97;0.90;;;30.10;43.50;;;;;;6884662;28;20462;-80
2022/08/12 18:26:22;;;;;;;3.33;1.00;;;29.90;41.90;;;;;;6885496;28;20478;-85
2022/08/12 18:29:48;;;;;;;3.10;1.05;;;29.60;42.30;;;;;;6863815;28;20976;-85
2022/08/12 18:33:12;;;;;;;2.55;1.00;;;29.50;43.20;;;;;;6870064;28;20430;-84
2022/08/12 18:36:35;;;;;;;4.03;1.20;;;29.30;42.80;;;;;;6900986;28;20433;-86
2022/08/12 18:43:39;;;;;;;2.58;0.90;;;28.90;43.90;;;;;;6884934;28;20446;-83
2022/08/12 18:47:08;;;;;;;5.45;1.13;;;28.70;44.30;;;;;;6870133;28;20438;-84
2022/08/12 18:50:31;;;;;;;2.95;0.98;;;28.50;44.30;;;;;;6896106;28;20443;-85
2022/08/12 18:53:54;;;;;;;4.27;1.10;;;28.40;44.80;;;;;;6914298;28;20433;-85
2022/08/12 18:57:18;;;;;;;3.33;1.20;;;28.20;45.60;;;;;;6915319;28;20436;-85
2022/08/12 19:00:40;;;;;;;3.10;1.40;;;28.00;46.60;;;;;;6916233;28;20484;-86
2022/08/12 19:04:06;;;;;;;6.03;1.67;;;27.90;47.20;;;;;;6898612;28;20445;-83
2022/08/12 19:07:28;;;;;;;4.18;1.60;;;27.80;47.40;;;;;;6914218;28;20591;-84
2022/08/12 19:10:51;;;;;;;2.77;1.37;;;27.60;47.30;;;;;;6916145;28;20527;-85
2022/08/12 19:14:26;;;;;;;3.22;1.10;;;27.40;47.60;;;;;;6911483;28;20444;-76
2022/08/12 19:17:51;;;;;;;3.30;1.20;;;27.10;46.40;;;;;;6900188;28;20452;-77
2022/08/12 19:21:14;;;;;;;4.43;1.20;;;26.90;47.60;;;;;;6908874;28;20436;-78
2022/08/12 19:28:17;;;;;;;3.22;1.20;;;26.60;47.90;;;;;;6909520;28;20436;-75
2022/08/12 19:31:45;;;;;;;4.90;1.27;;;26.40;47.30;;;;;;6911681;28;20432;-76
2022/08/12 19:35:09;;;;;;;3.50;1.10;;;26.20;48.00;;;;;;6910247;28;20872;-77
2022/08/12 19:38:32;;;;;;;3.40;1.20;;;26.00;48.40;;;;;;6909238;28;20443;-85